createdAt,value
2017-10-03T00:01:04.069Z,1.83
2017-10-03T00:03:31.642Z,1.50
2017-10-03T00:05:59.221Z,1.60
2017-10-03T00:08:27.477Z,1.60
2017-10-03T00:10:55.099Z,1.58
2017-10-03T00:13:22.561Z,1.58
2017-10-03T00:15:50.014Z,1.70
2017-10-03T00:18:17.505Z,1.48
2017-10-03T00:20:45.133Z,1.55
2017-10-03T00:23:12.590Z,1.50
2017-10-03T00:25:40.048Z,1.90
2017-10-03T00:28:07.500Z,1.42
2017-10-03T00:30:34.949Z,1.60
2017-10-03T00:33:02.419Z,1.45
2017-10-03T00:35:29.913Z,1.50
2017-10-03T00:37:57.373Z,1.40
2017-10-03T00:40:24.842Z,1.50
2017-10-03T00:42:52.394Z,1.90
2017-10-03T00:45:19.946Z,1.50
2017-10-03T00:47:47.405Z,1.73
2017-10-03T00:50:14.870Z,1.67
2017-10-03T00:52:42.414Z,1.52
2017-10-03T00:55:09.981Z,1.20
2017-10-03T00:57:37.556Z,1.20
2017-10-03T01:00:05.777Z,1.60
2017-10-03T01:02:33.280Z,1.30
2017-10-03T01:05:00.736Z,1.70
2017-10-03T01:07:28.191Z,1.35
2017-10-03T01:09:55.709Z,1.58
2017-10-03T01:12:23.167Z,1.30
2017-10-03T01:14:50.652Z,1.30
2017-10-03T01:17:18.225Z,1.40
2017-10-03T01:19:45.801Z,1.42
2017-10-03T01:22:14.058Z,1.60
2017-10-03T01:24:41.580Z,1.27
2017-10-03T01:27:09.038Z,1.35
2017-10-03T01:29:36.531Z,1.45
2017-10-03T01:32:03.997Z,1.40
2017-10-03T01:34:31.549Z,1.33
2017-10-03T01:36:59.006Z,1.15
2017-10-03T01:39:26.569Z,1.90
2017-10-03T01:41:54.089Z,1.15
2017-10-03T01:44:21.581Z,1.25
2017-10-03T01:46:49.124Z,1.35
2017-10-03T01:49:16.601Z,1.33
2017-10-03T01:51:44.153Z,1.25
2017-10-03T01:54:11.618Z,1.25
2017-10-03T01:56:39.168Z,1.33
2017-10-03T01:59:06.634Z,1.20
2017-10-03T02:01:34.199Z,1.27
2017-10-03T02:04:01.660Z,1.10
2017-10-03T02:06:29.121Z,1.15
2017-10-03T02:08:56.666Z,1.35
2017-10-03T02:11:24.131Z,1.12
2017-10-03T02:13:51.747Z,1.35
2017-10-03T02:16:19.190Z,1.27
2017-10-03T02:18:46.645Z,1.10
2017-10-03T02:21:14.110Z,1.00
2017-10-03T02:23:41.560Z,1.33
2017-10-03T02:26:09.075Z,1.00
2017-10-03T02:28:36.553Z,1.20
2017-10-03T02:31:04.780Z,1.10
2017-10-03T02:33:32.250Z,1.20
2017-10-03T02:35:59.727Z,1.00
2017-10-03T02:38:27.285Z,1.27
2017-10-03T02:40:54.737Z,1.00
2017-10-03T02:43:22.303Z,1.20
2017-10-03T02:45:49.765Z,1.10
2017-10-03T02:48:17.225Z,1.30
2017-10-03T02:50:45.456Z,1.25
2017-10-03T02:53:12.921Z,1.17
2017-10-03T02:55:40.394Z,1.08
2017-10-03T02:58:07.974Z,1.05
2017-10-03T03:00:35.425Z,1.10
2017-10-03T03:03:02.888Z,1.30
2017-10-03T03:05:31.113Z,0.90
2017-10-03T03:07:58.566Z,1.20
2017-10-03T03:10:26.046Z,1.00
2017-10-03T03:12:53.525Z,1.48
2017-10-03T03:15:20.981Z,1.20
2017-10-03T03:17:48.433Z,1.10
2017-10-03T03:20:15.902Z,1.20
2017-10-03T03:22:43.450Z,1.00
2017-10-03T03:25:11.009Z,1.42
2017-10-03T03:27:38.474Z,1.10
2017-10-03T03:30:05.934Z,1.10
2017-10-03T03:32:33.394Z,1.30
2017-10-03T03:35:00.849Z,1.52
2017-10-03T03:37:28.401Z,1.50
2017-10-03T03:39:55.853Z,1.30
2017-10-03T03:42:23.417Z,1.10
2017-10-03T03:44:50.873Z,1.02
2017-10-03T03:47:18.332Z,1.10
2017-10-03T03:49:45.790Z,1.55
2017-10-03T03:52:13.254Z,1.60
2017-10-03T03:54:40.717Z,1.23
2017-10-03T03:57:08.182Z,2.20
2017-10-03T03:59:36.401Z,1.35
2017-10-03T04:02:03.862Z,1.20
2017-10-03T04:04:31.325Z,1.08
2017-10-03T04:06:58.790Z,0.90
2017-10-03T04:09:26.245Z,1.10
2017-10-03T04:11:53.729Z,2.33
2017-10-03T04:14:21.278Z,1.20
2017-10-03T04:16:50.248Z,1.25
2017-10-03T04:19:17.729Z,1.27
2017-10-03T04:21:45.289Z,1.20
2017-10-03T04:24:12.762Z,1.00
2017-10-03T04:26:40.487Z,1.25
2017-10-03T04:29:08.856Z,1.20
2017-10-03T04:31:36.301Z,1.25
2017-10-03T04:34:03.768Z,1.40
2017-10-03T04:36:31.329Z,1.30
2017-10-03T04:38:58.778Z,1.23
2017-10-03T04:41:26.274Z,1.33
2017-10-03T04:43:53.802Z,2.03
2017-10-03T04:46:21.362Z,1.15
2017-10-03T04:48:48.824Z,1.30
2017-10-03T04:51:16.281Z,1.27
2017-10-03T04:53:43.737Z,1.05
2017-10-03T04:56:11.235Z,1.30
2017-10-03T04:58:38.726Z,2.47
2017-10-03T05:01:06.185Z,2.53
2017-10-03T05:03:33.701Z,1.65
2017-10-03T05:06:01.258Z,2.22
2017-10-03T05:08:28.819Z,1.77
2017-10-03T05:10:56.391Z,2.35
2017-10-03T05:13:23.938Z,2.08
2017-10-03T05:15:51.502Z,1.55
2017-10-03T05:18:19.124Z,2.17
2017-10-03T05:20:46.597Z,1.45
2017-10-03T05:23:14.059Z,1.67
2017-10-03T05:25:41.537Z,1.80
2017-10-03T05:28:09.005Z,1.58
2017-10-03T05:30:37.266Z,2.85
2017-10-03T05:33:04.726Z,1.65
2017-10-03T05:35:32.185Z,1.55
2017-10-03T05:37:59.703Z,1.62
2017-10-03T05:40:27.150Z,1.42
2017-10-03T05:42:54.653Z,1.67
2017-10-03T05:45:22.114Z,1.98
2017-10-03T05:47:49.564Z,2.25
2017-10-03T05:50:17.127Z,1.70
2017-10-03T05:52:44.682Z,1.80
2017-10-03T05:55:12.415Z,1.77
2017-10-03T05:57:39.977Z,2.67
2017-10-03T06:00:07.428Z,1.75
2017-10-03T06:02:34.926Z,2.83
2017-10-03T06:05:02.485Z,1.60
2017-10-03T06:07:30.110Z,1.50
2017-10-03T06:09:57.566Z,1.48
2017-10-03T06:12:25.029Z,1.50
2017-10-03T06:14:52.585Z,1.30
2017-10-03T06:17:20.029Z,1.40
2017-10-03T06:19:47.537Z,1.58
2017-10-03T06:22:15.096Z,1.70
2017-10-03T06:24:42.725Z,1.70
2017-10-03T06:27:10.174Z,2.00
2017-10-03T06:29:37.650Z,1.92
2017-10-03T06:32:05.135Z,2.78
2017-10-03T06:34:32.694Z,5.10
2017-10-03T06:37:00.262Z,1.65
2017-10-03T06:39:27.844Z,2.03
2017-10-03T06:41:55.387Z,1.27
2017-10-03T06:44:22.845Z,1.40
2017-10-03T06:46:50.305Z,1.20
2017-10-03T06:49:17.763Z,1.20
2017-10-03T06:51:45.229Z,1.20
2017-10-03T06:54:12.777Z,1.85
2017-10-03T06:56:41.755Z,1.05
2017-10-03T06:59:09.204Z,1.30
2017-10-03T07:01:36.665Z,1.92
2017-10-03T07:04:04.139Z,1.50
2017-10-03T07:06:31.585Z,2.30
2017-10-03T07:08:59.141Z,1.42
2017-10-03T07:11:26.597Z,1.27
2017-10-03T07:13:54.127Z,1.20
2017-10-03T07:16:21.574Z,1.37
2017-10-03T07:18:49.017Z,1.27
2017-10-03T07:21:17.239Z,1.10
2017-10-03T07:23:44.693Z,1.10
2017-10-03T07:26:12.166Z,1.50
2017-10-03T07:28:39.618Z,1.40
2017-10-03T07:31:07.077Z,1.70
2017-10-03T07:33:34.636Z,1.80
2017-10-03T07:36:02.192Z,1.75
2017-10-03T07:38:29.753Z,1.27
2017-10-03T07:40:57.218Z,1.20
2017-10-03T07:43:24.668Z,1.20
2017-10-03T07:45:52.198Z,1.67
2017-10-03T07:48:19.686Z,1.20
2017-10-03T07:50:47.154Z,1.20
2017-10-03T07:53:14.606Z,2.00
2017-10-03T07:55:42.061Z,1.42
2017-10-03T07:58:09.557Z,1.35
2017-10-03T08:00:37.774Z,2.05
2017-10-03T08:03:05.276Z,1.40
2017-10-03T08:05:32.792Z,1.52
2017-10-03T08:08:00.269Z,1.20
2017-10-03T08:10:27.894Z,1.50
2017-10-03T08:12:55.457Z,1.40
2017-10-03T08:15:22.894Z,1.30
2017-10-03T08:17:50.473Z,1.40
2017-10-03T08:20:17.926Z,1.30
2017-10-03T08:22:45.390Z,1.27
2017-10-03T08:25:12.839Z,1.37
2017-10-03T08:27:40.346Z,1.40
2017-10-03T08:30:07.898Z,1.40
2017-10-03T08:32:35.453Z,1.45
2017-10-03T08:35:02.914Z,1.40
2017-10-03T08:37:30.415Z,1.40
2017-10-03T08:39:57.922Z,1.80
2017-10-03T08:42:25.395Z,1.33
2017-10-03T08:44:52.862Z,1.55
2017-10-03T08:47:20.781Z,1.87
2017-10-03T08:49:48.304Z,2.22
2017-10-03T08:52:16.612Z,1.50
2017-10-03T08:54:44.066Z,1.52
2017-10-03T08:57:11.713Z,1.75
2017-10-03T08:59:39.175Z,1.50
2017-10-03T09:02:06.647Z,1.77
2017-10-03T09:04:34.090Z,1.58
2017-10-03T09:07:01.594Z,1.73
2017-10-03T09:09:29.038Z,1.95
2017-10-03T09:11:56.494Z,3.87
2017-10-03T09:14:23.950Z,1.67
2017-10-03T09:16:51.431Z,1.65
2017-10-03T09:19:18.982Z,1.75
2017-10-03T09:21:46.541Z,1.70
2017-10-03T09:24:14.101Z,1.30
2017-10-03T09:26:41.556Z,1.27
2017-10-03T09:29:09.118Z,2.15
2017-10-03T09:31:36.583Z,1.15
2017-10-03T09:34:04.142Z,1.42
2017-10-03T09:36:31.696Z,1.33
2017-10-03T09:38:59.147Z,1.83
2017-10-03T09:41:26.607Z,1.58
2017-10-03T09:43:54.064Z,1.48
2017-10-03T09:46:21.531Z,1.12
2017-10-03T09:48:49.089Z,1.27
2017-10-03T09:51:16.651Z,1.40
2017-10-03T09:53:44.180Z,1.90
2017-10-03T09:56:11.661Z,1.90
2017-10-03T09:58:39.113Z,1.70
2017-10-03T10:01:06.571Z,1.62
2017-10-03T10:03:34.035Z,1.60
2017-10-03T10:06:01.490Z,1.42
2017-10-03T10:08:29.049Z,1.48
2017-10-03T10:10:56.614Z,1.30
2017-10-03T10:13:24.169Z,1.12
2017-10-03T10:15:51.627Z,1.30
2017-10-03T10:18:19.186Z,1.37
2017-10-03T10:20:46.746Z,1.17
2017-10-03T10:23:14.200Z,1.40
2017-10-03T10:25:41.650Z,1.65
2017-10-03T10:28:09.122Z,1.48
2017-10-03T10:30:36.594Z,1.45
2017-10-03T10:33:04.047Z,1.70
2017-10-03T10:35:31.503Z,1.80
2017-10-03T10:37:58.973Z,1.42
2017-10-03T10:40:27.226Z,1.90
2017-10-03T10:42:54.784Z,1.67
2017-10-03T10:45:22.226Z,1.62
2017-10-03T10:47:49.699Z,1.58
2017-10-03T10:50:17.150Z,1.40
2017-10-03T10:52:44.652Z,3.25
2017-10-03T10:55:16.467Z,2.15
2017-10-03T10:57:44.308Z,1.73
2017-10-03T11:00:11.759Z,2.03
2017-10-03T11:02:39.215Z,1.55
2017-10-03T11:05:06.666Z,2.00
2017-10-03T11:07:34.122Z,1.50
2017-10-03T11:10:01.572Z,1.45
2017-10-03T11:12:29.026Z,1.30
2017-10-03T11:14:56.478Z,1.62
2017-10-03T11:17:24.698Z,1.50
2017-10-03T11:19:52.143Z,1.10
2017-10-03T11:22:19.626Z,1.45
2017-10-03T11:24:47.077Z,1.10
2017-10-03T11:27:24.441Z,1.62
2017-10-03T11:29:51.941Z,1.45
2017-10-03T11:32:19.545Z,1.50
2017-10-03T11:34:47.054Z,1.50
2017-10-03T11:37:14.613Z,1.65
2017-10-03T11:39:42.240Z,1.30
2017-10-03T11:42:09.737Z,1.10
2017-10-03T11:44:37.293Z,1.30
2017-10-03T11:47:04.855Z,1.50
2017-10-03T11:49:32.376Z,1.42
2017-10-03T11:51:59.834Z,1.40
2017-10-03T11:54:27.293Z,1.30
2017-10-03T11:56:54.749Z,1.90
2017-10-03T11:59:22.240Z,1.20
2017-10-03T12:01:49.802Z,1.40
2017-10-03T12:04:17.356Z,1.60
2017-10-03T12:06:44.815Z,1.83
2017-10-03T12:09:12.285Z,2.33
2017-10-03T12:11:39.747Z,2.62
2017-10-03T12:14:07.223Z,1.55
2017-10-03T12:16:35.446Z,7.82
2017-10-03T12:19:02.937Z,1.17
2017-10-03T12:21:30.485Z,1.27
2017-10-03T12:23:57.963Z,1.70
2017-10-03T12:26:26.206Z,1.30
2017-10-03T12:28:53.666Z,1.52
2017-10-03T12:31:21.130Z,2.58
2017-10-03T12:33:48.686Z,1.45
2017-10-03T12:36:16.256Z,1.80
2017-10-03T12:38:43.782Z,1.58
2017-10-03T12:41:11.270Z,1.30
2017-10-03T12:43:38.738Z,1.17
2017-10-03T12:46:07.000Z,1.20
2017-10-03T12:48:35.970Z,1.45
2017-10-03T12:51:03.461Z,1.23
2017-10-03T12:53:30.926Z,1.05
2017-10-03T12:55:59.150Z,1.10
2017-10-03T12:58:26.646Z,1.15
2017-10-03T13:00:54.265Z,1.50
2017-10-03T13:03:21.721Z,1.10
2017-10-03T13:05:49.198Z,1.20
2017-10-03T13:08:16.677Z,1.20
2017-10-03T13:10:44.259Z,1.30
2017-10-03T13:13:12.478Z,1.60
2017-10-03T13:15:40.008Z,1.52
2017-10-03T13:18:08.246Z,2.03
2017-10-03T13:20:35.729Z,1.20
2017-10-03T13:23:03.974Z,1.45
2017-10-03T13:25:31.437Z,1.17
2017-10-03T13:27:59.059Z,1.90
2017-10-03T13:30:26.510Z,1.40
2017-10-03T13:32:54.045Z,1.50
2017-10-03T13:35:22.344Z,1.40
2017-10-03T13:37:49.821Z,1.85
2017-10-03T13:40:17.283Z,1.40
2017-10-03T13:42:44.784Z,1.15
2017-10-03T13:45:13.017Z,1.40
2017-10-03T13:47:40.502Z,1.60
2017-10-03T13:50:07.968Z,1.50
2017-10-03T13:52:36.231Z,1.70
2017-10-03T13:55:04.523Z,1.60
2017-10-03T13:57:31.973Z,1.58
2017-10-03T13:59:59.434Z,2.20
2017-10-03T14:02:27.688Z,1.50
2017-10-03T14:04:55.249Z,1.60
2017-10-03T14:07:22.713Z,1.20
2017-10-03T14:09:50.166Z,1.50
2017-10-03T14:12:17.741Z,1.77
2017-10-03T14:14:45.297Z,1.12
2017-10-03T14:17:12.810Z,1.60
2017-10-03T14:19:40.297Z,1.70
2017-10-03T14:22:07.858Z,1.50
2017-10-03T14:24:35.389Z,1.35
2017-10-03T14:27:02.839Z,1.50
2017-10-03T14:29:30.307Z,1.77
2017-10-03T14:31:57.785Z,1.37
2017-10-03T14:34:25.234Z,1.60
2017-10-03T14:36:52.824Z,1.50
2017-10-03T14:39:20.400Z,1.40
2017-10-03T14:41:48.620Z,1.50
2017-10-03T14:44:16.114Z,1.20
2017-10-03T14:46:43.630Z,1.70
2017-10-03T14:49:11.095Z,1.73
2017-10-03T14:51:38.556Z,2.20
2017-10-03T14:54:06.014Z,1.45
2017-10-03T14:56:33.471Z,1.73
2017-10-03T14:59:00.931Z,1.80
2017-10-03T15:01:28.412Z,3.80
2017-10-03T15:03:55.975Z,1.30
2017-10-03T15:06:23.437Z,1.42
2017-10-03T15:08:50.992Z,1.80
2017-10-03T15:11:18.552Z,1.48
2017-10-03T15:13:46.126Z,1.70
2017-10-03T15:16:13.667Z,1.70
2017-10-03T15:18:41.229Z,1.52
2017-10-03T15:21:08.698Z,1.90
2017-10-03T15:23:36.254Z,2.28
2017-10-03T15:26:03.806Z,1.85
2017-10-03T15:28:31.271Z,1.45
2017-10-03T15:30:58.821Z,1.87
2017-10-03T15:33:26.309Z,2.08
2017-10-03T15:35:54.526Z,1.40
2017-10-03T15:38:22.023Z,1.67
2017-10-03T15:40:49.659Z,3.00
2017-10-03T15:43:17.134Z,1.55
2017-10-03T15:45:44.609Z,1.70
2017-10-03T15:48:12.864Z,2.08
2017-10-03T15:50:40.346Z,2.20
2017-10-03T15:53:08.679Z,2.30
2017-10-03T15:55:36.167Z,2.92
2017-10-03T15:58:03.625Z,2.90
2017-10-03T16:00:31.083Z,2.20
2017-10-03T16:02:58.551Z,2.00
2017-10-03T16:05:27.515Z,2.65
2017-10-03T16:07:55.081Z,2.42
2017-10-03T16:10:22.531Z,2.75
2017-10-03T16:12:50.007Z,2.35
2017-10-03T16:15:17.574Z,2.00
2017-10-03T16:17:45.137Z,5.65
2017-10-03T16:20:13.362Z,2.25
2017-10-03T16:22:40.831Z,2.58
2017-10-03T16:25:08.295Z,2.65
2017-10-03T16:27:35.775Z,2.72
2017-10-03T16:30:03.235Z,2.35
2017-10-03T16:32:30.851Z,2.60
2017-10-03T16:34:58.317Z,3.22
2017-10-03T16:37:26.158Z,3.05
2017-10-03T16:39:53.655Z,2.97
2017-10-03T16:42:21.219Z,2.75
2017-10-03T16:44:48.786Z,4.10
2017-10-03T16:47:16.354Z,2.78
2017-10-03T16:49:43.911Z,3.10
2017-10-03T16:52:11.458Z,3.37
2017-10-03T16:54:38.913Z,3.45
2017-10-03T16:57:06.371Z,4.50
2017-10-03T16:59:33.825Z,3.75
2017-10-03T17:02:01.279Z,5.00
2017-10-03T17:04:28.774Z,4.00
2017-10-03T17:06:56.319Z,4.00
2017-10-03T17:09:23.779Z,5.18
2017-10-03T17:11:51.335Z,5.45
2017-10-03T17:14:18.801Z,5.78
2017-10-03T17:16:46.275Z,4.82
2017-10-03T17:19:14.550Z,4.53
2017-10-03T17:21:42.786Z,8.55
2017-10-03T17:24:10.284Z,5.00
2017-10-03T17:26:37.834Z,5.05
2017-10-03T17:29:05.319Z,6.60
2017-10-03T17:31:33.555Z,5.00
2017-10-03T17:34:01.034Z,4.75
2017-10-03T17:36:29.254Z,6.30
2017-10-03T17:38:56.765Z,5.45
2017-10-03T17:41:24.300Z,5.70
2017-10-03T17:43:51.758Z,4.40
2017-10-03T17:46:19.322Z,4.75
2017-10-03T17:48:46.782Z,4.65
2017-10-03T17:51:14.342Z,5.97
2017-10-03T17:53:41.893Z,6.68
2017-10-03T17:56:09.354Z,5.20
2017-10-03T17:58:36.825Z,4.80
2017-10-03T18:01:04.421Z,5.12
2017-10-03T18:03:31.891Z,4.28
2017-10-03T18:05:59.336Z,5.90
2017-10-03T18:08:26.841Z,4.87
2017-10-03T18:10:54.307Z,5.75
2017-10-03T18:13:21.865Z,5.12
2017-10-03T18:15:49.433Z,5.22
2017-10-03T18:18:16.899Z,4.70
2017-10-03T18:20:44.354Z,5.50
2017-10-03T18:23:11.893Z,5.18
2017-10-03T18:25:39.431Z,5.60
2017-10-03T18:28:06.905Z,5.50
2017-10-03T18:30:34.378Z,5.80
2017-10-03T18:33:01.934Z,5.20
2017-10-03T18:35:29.482Z,5.22
2017-10-03T18:37:56.938Z,5.95
2017-10-03T18:40:24.401Z,5.68
2017-10-03T18:42:51.868Z,6.10
2017-10-03T18:45:19.671Z,6.40
2017-10-03T18:47:47.190Z,5.93
2017-10-03T18:50:14.802Z,6.37
2017-10-03T18:52:42.321Z,6.80
2017-10-03T18:55:09.794Z,6.60
2017-10-03T18:57:38.037Z,6.80
2017-10-03T19:00:05.597Z,8.00
2017-10-03T19:02:33.882Z,6.45
2017-10-03T19:05:01.508Z,6.07
2017-10-03T19:07:28.999Z,6.55
2017-10-03T19:09:56.453Z,5.95
2017-10-03T19:12:24.010Z,5.53
2017-10-03T19:14:51.525Z,5.37
2017-10-03T19:17:19.027Z,6.20
2017-10-03T19:19:46.482Z,6.60
2017-10-03T19:22:13.946Z,6.28
2017-10-03T19:24:41.391Z,6.55
2017-10-03T19:27:08.963Z,6.10
2017-10-03T19:29:37.274Z,6.10
2017-10-03T19:32:05.524Z,6.12
2017-10-03T19:34:32.985Z,6.57
2017-10-03T19:37:00.466Z,6.90
2017-10-03T19:39:27.916Z,7.20
2017-10-03T19:41:56.158Z,7.65
2017-10-03T19:44:23.619Z,6.97
2017-10-03T19:46:51.221Z,6.75
2017-10-03T19:49:19.490Z,7.50
2017-10-03T19:51:47.727Z,6.72
2017-10-03T19:54:15.290Z,7.47
2017-10-03T19:56:42.737Z,7.20
2017-10-03T19:59:10.309Z,7.22
2017-10-03T20:01:37.771Z,8.90
2017-10-03T20:04:05.319Z,7.10
2017-10-03T20:06:32.770Z,8.30
2017-10-03T20:09:00.339Z,7.40
2017-10-03T20:11:27.907Z,7.53
2017-10-03T20:13:55.566Z,7.15
2017-10-03T20:16:23.077Z,7.55
2017-10-03T20:18:50.578Z,7.35
2017-10-03T20:21:18.132Z,6.70
2017-10-03T20:23:45.806Z,6.05
2017-10-03T20:26:13.395Z,6.28
2017-10-03T20:28:40.863Z,6.75
2017-10-03T20:31:08.310Z,6.53
2017-10-03T20:33:36.535Z,6.70
2017-10-03T20:36:04.004Z,7.60
2017-10-03T20:38:31.668Z,6.55
2017-10-03T20:40:59.122Z,6.18
2017-10-03T20:43:26.575Z,6.05
2017-10-03T20:45:54.023Z,5.82
2017-10-03T20:48:21.504Z,6.00
2017-10-03T20:50:49.061Z,6.47
2017-10-03T20:53:16.518Z,5.40
2017-10-03T20:55:43.974Z,6.55
2017-10-03T20:58:11.437Z,6.03
2017-10-03T21:00:38.985Z,5.68
2017-10-03T21:03:06.445Z,5.47
2017-10-03T21:05:33.889Z,4.70
2017-10-03T21:08:01.357Z,5.32
2017-10-03T21:10:28.923Z,5.35
2017-10-03T21:12:56.479Z,5.70
2017-10-03T21:15:23.973Z,5.30
2017-10-03T21:17:51.495Z,4.82
2017-10-03T21:20:19.053Z,5.03
2017-10-03T21:22:46.606Z,5.47
2017-10-03T21:25:14.074Z,5.32
2017-10-03T21:27:41.627Z,5.78
2017-10-03T21:30:09.087Z,5.53
2017-10-03T21:32:36.770Z,6.32
2017-10-03T21:35:05.038Z,5.25
2017-10-03T21:37:32.497Z,5.60
2017-10-03T21:40:00.002Z,6.07
2017-10-03T21:42:39.379Z,5.60
2017-10-03T21:45:06.840Z,8.23
2017-10-03T21:47:34.286Z,5.62
2017-10-03T21:50:01.853Z,5.22
2017-10-03T21:52:29.421Z,5.12
2017-10-03T21:54:56.874Z,5.30
2017-10-03T21:57:24.345Z,5.03
2017-10-03T21:59:52.565Z,5.40
2017-10-03T22:02:20.018Z,5.50
2017-10-03T22:04:47.510Z,5.20
2017-10-03T22:07:14.970Z,5.15
2017-10-03T22:09:42.530Z,4.85
2017-10-03T22:12:09.973Z,4.68
2017-10-03T22:14:37.453Z,4.70
2017-10-03T22:17:04.925Z,4.53
2017-10-03T22:19:32.462Z,4.87
2017-10-03T22:21:59.923Z,5.30
2017-10-03T22:24:27.537Z,4.53
2017-10-03T22:26:54.997Z,4.60
2017-10-03T22:29:22.493Z,4.90
2017-10-03T22:31:49.964Z,4.60
2017-10-03T22:34:17.511Z,5.22
2017-10-03T22:36:46.501Z,5.10
2017-10-03T22:39:13.950Z,5.22
2017-10-03T22:41:43.212Z,4.62
2017-10-03T22:44:11.026Z,5.07
2017-10-03T22:46:38.651Z,4.40
2017-10-03T22:49:16.003Z,4.85
2017-10-03T22:51:49.054Z,5.12
2017-10-03T22:54:16.530Z,4.80
2017-10-03T22:56:44.073Z,5.80
2017-10-03T22:59:11.523Z,5.12
2017-10-03T23:01:39.020Z,5.35
2017-10-03T23:04:06.550Z,4.85
2017-10-03T23:06:34.040Z,6.25
2017-10-03T23:09:02.258Z,5.93
2017-10-03T23:11:29.697Z,5.78
2017-10-03T23:13:57.205Z,6.35
2017-10-03T23:16:24.662Z,5.80
2017-10-03T23:18:52.109Z,5.37
2017-10-03T23:21:19.565Z,5.45
2017-10-03T23:23:47.025Z,5.45
2017-10-03T23:26:14.964Z,5.82
2017-10-03T23:28:42.409Z,4.60
2017-10-03T23:31:09.894Z,5.93
2017-10-03T23:33:37.368Z,5.20
2017-10-03T23:36:04.830Z,4.78
2017-10-03T23:38:32.285Z,4.97
2017-10-03T23:40:59.754Z,4.90
2017-10-03T23:43:27.301Z,4.93
2017-10-03T23:45:54.928Z,4.80
2017-10-03T23:48:22.378Z,5.00
2017-10-03T23:50:49.853Z,4.57
2017-10-03T23:53:17.306Z,4.25
2017-10-03T23:55:44.757Z,4.37
2017-10-03T23:58:12.207Z,4.72
